Time;durP1;ratioP1;P1;durP2;ratioP2;P2;SDS_P1;SDS_P2;PMS_P1;PMS_P2;Temp;Humidity;BMP_temperature;BMP_pressure;BME280_temperature;BME280_humidity;BME280_pressure;Samples;Min_cycle;Max_cycle;Signal;HPM_P1;HPM_P2
2022/03/08 00:00:41;;;;;;;12.18;5.47;;;0.80;99.90;;;;;;5005607;28;20093;-85
2022/03/08 00:03:07;;;;;;;12.38;5.55;;;0.80;99.90;;;;;;5011879;28;20060;-85
2022/03/08 00:05:32;;;;;;;13.05;6.03;;;0.80;99.90;;;;;;5007092;28;20129;-85
2022/03/08 00:07:59;;;;;;;12.38;5.50;;;0.80;99.90;;;;;;5026682;28;20116;-85
2022/03/08 00:10:26;;;;;;;12.15;5.80;;;0.70;99.90;;;;;;4996610;28;20508;-85
2022/03/08 00:12:52;;;;;;;13.20;6.18;;;0.70;99.90;;;;;;5010096;28;20050;-86
2022/03/08 00:15:24;;;;;;;12.70;6.03;;;0.70;99.90;;;;;;5014703;28;20041;-85
2022/03/08 00:17:51;;;;;;;10.80;5.25;;;0.70;99.90;;;;;;5017904;28;20041;-85
2022/03/08 00:20:17;;;;;;;11.93;6.00;;;0.60;99.90;;;;;;4996002;28;20033;-85
2022/03/08 00:22:43;;;;;;;11.60;5.88;;;0.60;99.90;;;;;;4992112;28;20099;-85
2022/03/08 00:25:11;;;;;;;12.63;5.55;;;0.50;99.90;;;;;;4998700;28;20137;-85
2022/03/08 00:27:37;;;;;;;10.80;5.15;;;0.50;99.90;;;;;;5009306;28;20078;-85
2022/03/08 00:30:06;;;;;;;11.32;5.80;;;0.40;99.90;;;;;;5008411;28;20048;-84
2022/03/08 00:32:32;;;;;;;12.30;5.90;;;0.30;99.90;;;;;;4982695;28;20056;-84
2022/03/08 00:34:57;;;;;;;12.15;5.93;;;0.30;99.90;;;;;;4981593;28;20041;-84
2022/03/08 00:37:23;;;;;;;10.75;5.18;;;0.30;99.90;;;;;;4991864;28;20041;-84
2022/03/08 00:39:49;;;;;;;11.63;6.07;;;0.30;99.90;;;;;;4977747;28;20077;-84
2022/03/08 00:42:15;;;;;;;10.90;5.10;;;0.20;99.90;;;;;;5003519;28;20522;-84
2022/03/08 00:44:42;;;;;;;13.23;5.68;;;0.30;99.90;;;;;;5006894;28;20048;-84
2022/03/08 00:47:09;;;;;;;11.07;5.15;;;0.20;99.90;;;;;;5012082;28;20042;-84
2022/03/08 00:49:36;;;;;;;13.10;5.60;;;0.20;99.90;;;;;;5010603;28;20139;-84
2022/03/08 00:52:02;;;;;;;11.70;5.53;;;0.20;99.90;;;;;;5010337;28;20049;-84
2022/03/08 00:54:28;;;;;;;11.93;5.70;;;0.10;99.90;;;;;;4979507;28;20406;-84
2022/03/08 00:56:54;;;;;;;13.35;5.82;;;0.10;99.90;;;;;;4998338;28;20045;-85
2022/03/08 00:59:19;;;;;;;12.00;5.90;;;0.10;99.90;;;;;;5032937;28;20060;-84
2022/03/08 01:01:45;;;;;;;12.20;6.10;;;0.10;99.90;;;;;;5006759;28;20085;-85
2022/03/08 01:04:11;;;;;;;11.25;5.38;;;0.10;99.90;;;;;;5017512;28;20048;-84
2022/03/08 01:06:36;;;;;;;13.07;5.40;;;0.00;99.90;;;;;;4985031;28;20045;-85
2022/03/08 01:09:03;;;;;;;13.75;6.50;;;0.00;99.90;;;;;;4989494;28;20413;-84
2022/03/08 01:11:28;;;;;;;10.98;5.18;;;0.00;99.90;;;;;;5006417;28;20095;-85
2022/03/08 01:13:54;;;;;;;13.18;5.90;;;-0.10;99.90;;;;;;4977565;28;20082;-84
2022/03/08 01:16:20;;;;;;;12.75;5.63;;;-0.10;99.90;;;;;;4994427;28;20387;-84
2022/03/08 01:18:47;;;;;;;13.00;6.00;;;-0.10;99.90;;;;;;5016603;28;20041;-84
2022/03/08 01:21:14;;;;;;;12.50;5.97;;;-0.20;99.90;;;;;;5014849;28;20550;-85
2022/03/08 01:23:41;;;;;;;11.52;5.38;;;-0.20;99.90;;;;;;5012614;28;20046;-84
2022/03/08 01:26:06;;;;;;;12.52;5.50;;;-0.20;99.90;;;;;;5016194;28;20045;-84
2022/03/08 01:28:32;;;;;;;11.68;5.63;;;-0.20;99.90;;;;;;5006588;28;20078;-84
2022/03/08 01:30:58;;;;;;;12.82;5.60;;;-0.30;99.90;;;;;;5027431;28;20050;-84
2022/03/08 01:33:23;;;;;;;11.50;5.53;;;-0.40;99.90;;;;;;5010027;28;20339;-84
2022/03/08 01:35:49;;;;;;;13.30;6.13;;;-0.40;99.90;;;;;;4993953;28;20049;-83
2022/03/08 01:38:14;;;;;;;12.10;6.05;;;-0.50;99.90;;;;;;5022226;28;20030;-83
2022/03/08 01:40:40;;;;;;;13.30;5.72;;;-0.50;99.90;;;;;;5010683;28;20045;-83
2022/03/08 01:43:05;;;;;;;12.57;6.50;;;-0.50;99.90;;;;;;5005972;28;20045;-84
2022/03/08 01:45:33;;;;;;;14.35;6.35;;;-0.40;99.90;;;;;;5002990;28;20085;-83
2022/03/08 01:47:58;;;;;;;13.07;6.05;;;-0.50;99.90;;;;;;4994962;28;20046;-83
2022/03/08 01:50:24;;;;;;;12.98;6.75;;;-0.50;99.90;;;;;;4995882;28;20063;-83
2022/03/08 01:52:50;;;;;;;16.13;6.85;;;-0.40;99.90;;;;;;4991042;28;20045;-83
2022/03/08 01:55:16;;;;;;;15.65;7.57;;;-0.40;99.90;;;;;;5013723;28;20034;-83
2022/03/08 01:57:44;;;;;;;15.88;7.75;;;-0.40;99.90;;;;;;4999679;28;20084;-83
2022/03/08 02:00:13;;;;;;;15.63;6.90;;;-0.30;99.90;;;;;;5005696;28;20439;-83
2022/03/08 02:02:40;;;;;;;15.15;7.18;;;-0.30;99.90;;;;;;4994982;28;20104;-83
2022/03/08 02:05:06;;;;;;;15.15;7.30;;;-0.30;99.90;;;;;;5007268;28;20052;-83
2022/03/08 02:07:32;;;;;;;14.93;6.85;;;-0.30;99.90;;;;;;4985676;28;20041;-83
2022/03/08 02:09:59;;;;;;;15.13;7.43;;;-0.30;99.90;;;;;;4991506;28;20042;-84
2022/03/08 02:12:24;;;;;;;15.85;7.40;;;-0.30;99.90;;;;;;5007877;28;20044;-84
2022/03/08 02:14:50;;;;;;;14.50;7.32;;;-0.40;99.90;;;;;;5007817;28;20034;-83
2022/03/08 02:17:15;;;;;;;13.55;7.10;;;-0.40;99.90;;;;;;4978791;28;20441;-83
2022/03/08 02:19:41;;;;;;;13.70;6.65;;;-0.40;99.90;;;;;;5008976;28;20048;-84
2022/03/08 02:22:06;;;;;;;16.58;7.65;;;-0.40;99.90;;;;;;5025629;28;20423;-84
2022/03/08 02:24:32;;;;;;;16.02;7.15;;;-0.50;99.90;;;;;;5013672;28;20474;-83
2022/03/08 02:26:59;;;;;;;15.15;6.90;;;-0.50;99.90;;;;;;5007952;28;20049;-83
2022/03/08 02:29:25;;;;;;;15.82;7.10;;;-0.50;99.90;;;;;;5026044;28;20037;-82
2022/03/08 02:31:51;;;;;;;15.85;8.15;;;-0.50;99.90;;;;;;5019935;28;20053;-82
2022/03/08 02:34:16;;;;;;;15.32;8.00;;;-0.50;99.90;;;;;;4998353;28;20053;-83
2022/03/08 02:37:05;;;;;;;16.70;8.27;;;-0.40;99.90;;;;;;5008583;28;20128;-82
2022/03/08 02:39:30;;;;;;;19.67;8.63;;;-0.40;99.90;;;;;;5007268;28;20617;-82
2022/03/08 02:41:56;;;;;;;16.98;7.68;;;-0.40;99.90;;;;;;4996089;28;20125;-82
2022/03/08 02:44:22;;;;;;;16.27;8.13;;;-0.40;99.90;;;;;;4993053;28;20046;-82
2022/03/08 02:46:47;;;;;;;16.33;8.20;;;-0.40;99.90;;;;;;4989717;28;20394;-82
2022/03/08 02:49:13;;;;;;;17.05;7.72;;;-0.40;99.90;;;;;;4977506;28;20440;-82
2022/03/08 02:51:38;;;;;;;16.02;7.97;;;-0.40;99.90;;;;;;5023050;28;20406;-83
2022/03/08 02:54:04;;;;;;;17.45;9.45;;;-0.30;99.90;;;;;;5012295;28;20052;-83
2022/03/08 02:56:30;;;;;;;18.90;8.75;;;-0.20;99.90;;;;;;5011460;28;20049;-82
2022/03/08 02:58:55;;;;;;;18.63;9.40;;;-0.20;99.90;;;;;;4984891;28;20053;-83
2022/03/08 03:01:21;;;;;;;17.77;9.23;;;-0.30;99.90;;;;;;4998099;28;20050;-82
2022/03/08 03:03:47;;;;;;;14.73;7.70;;;-0.30;99.90;;;;;;5019761;28;20057;-82
2022/03/08 03:06:12;;;;;;;18.02;8.70;;;-0.30;99.90;;;;;;4995304;28;20042;-82
2022/03/08 03:08:38;;;;;;;17.52;8.95;;;-0.40;99.90;;;;;;5004044;28;20041;-83
2022/03/08 03:11:04;;;;;;;14.55;7.50;;;-0.40;99.90;;;;;;5021028;28;20487;-82
2022/03/08 03:13:29;;;;;;;18.98;8.35;;;-0.40;99.90;;;;;;5030121;28;20099;-82
2022/03/08 03:15:55;;;;;;;17.20;9.40;;;-0.40;99.90;;;;;;4993425;28;20481;-83
2022/03/08 03:18:20;;;;;;;16.15;9.05;;;-0.50;99.90;;;;;;5014342;28;20038;-82
2022/03/08 03:20:46;;;;;;;17.30;9.00;;;-0.50;99.90;;;;;;5008111;28;20065;-82
2022/03/08 03:23:11;;;;;;;19.42;9.30;;;-0.50;99.90;;;;;;4993764;28;20092;-83
2022/03/08 03:25:37;;;;;;;15.10;8.05;;;-0.50;99.90;;;;;;4999281;28;20076;-83
2022/03/08 03:28:03;;;;;;;18.40;8.38;;;-0.50;99.90;;;;;;4980654;28;20033;-83
2022/03/08 03:30:28;;;;;;;17.65;9.05;;;-0.50;99.90;;;;;;4993678;28;20128;-83
2022/03/08 03:32:54;;;;;;;17.75;9.00;;;-0.50;99.90;;;;;;4983022;28;20128;-83
2022/03/08 03:35:19;;;;;;;17.13;9.35;;;-0.50;99.90;;;;;;4977237;28;20136;-83
2022/03/08 03:37:46;;;;;;;17.38;8.82;;;-0.60;99.90;;;;;;4993807;28;20038;-83
2022/03/08 03:40:12;;;;;;;17.50;8.45;;;-0.60;99.90;;;;;;5029284;28;20060;-83
2022/03/08 03:42:39;;;;;;;16.88;9.00;;;-0.60;99.90;;;;;;5027814;28;20044;-83
2022/03/08 03:45:05;;;;;;;19.10;9.63;;;-0.60;99.90;;;;;;5003664;28;20049;-83
2022/03/08 03:47:31;;;;;;;16.50;7.90;;;-0.60;99.90;;;;;;5011280;28;20041;-83
2022/03/08 03:49:57;;;;;;;19.85;9.68;;;-0.60;99.90;;;;;;5015745;28;20060;-83
2022/03/08 03:52:22;;;;;;;19.83;9.65;;;-0.70;99.90;;;;;;5018668;28;20069;-83
2022/03/08 03:54:48;;;;;;;20.30;9.00;;;-0.60;99.90;;;;;;5029072;28;20482;-83
2022/03/08 03:57:13;;;;;;;19.98;9.07;;;-0.60;99.90;;;;;;5029090;28;20133;-83
2022/03/08 03:59:40;;;;;;;19.10;8.45;;;-0.70;99.90;;;;;;5004158;28;20042;-83
2022/03/08 04:02:06;;;;;;;18.27;9.35;;;-0.70;99.90;;;;;;5011761;28;20119;-83
2022/03/08 04:04:31;;;;;;;18.55;9.80;;;-0.60;99.90;;;;;;4995800;28;20096;-83
2022/03/08 04:06:57;;;;;;;20.05;9.77;;;-0.70;99.90;;;;;;4992097;28;20053;-83
2022/03/08 04:09:22;;;;;;;22.83;10.32;;;-0.70;99.90;;;;;;4985995;28;20140;-84
2022/03/08 04:11:48;;;;;;;20.75;10.68;;;-0.60;99.90;;;;;;4992522;28;20049;-83
2022/03/08 04:14:15;;;;;;;20.58;10.40;;;-0.60;99.90;;;;;;4999492;28;20045;-83
2022/03/08 04:16:41;;;;;;;20.85;10.70;;;-0.60;99.90;;;;;;5011423;28;20045;-83
2022/03/08 04:19:06;;;;;;;18.85;9.85;;;-0.60;99.90;;;;;;5005007;28;20402;-84
2022/03/08 04:21:32;;;;;;;20.10;9.82;;;-0.60;99.90;;;;;;4988039;28;20057;-83
2022/03/08 04:23:59;;;;;;;18.73;9.70;;;-0.60;99.90;;;;;;4995242;28;20121;-83
2022/03/08 04:26:25;;;;;;;17.67;10.73;;;-0.60;99.90;;;;;;4993875;28;20069;-83
2022/03/08 04:28:50;;;;;;;21.80;10.88;;;-0.60;99.90;;;;;;4997206;28;20096;-83
2022/03/08 04:31:16;;;;;;;19.92;10.18;;;-0.70;99.90;;;;;;4975582;28;20053;-83
2022/03/08 04:33:41;;;;;;;21.17;11.45;;;-0.70;99.90;;;;;;4986808;28;20137;-84
2022/03/08 04:36:07;;;;;;;24.35;11.30;;;-0.60;99.90;;;;;;4996074;28;20060;-83
2022/03/08 04:38:32;;;;;;;21.40;11.10;;;-0.70;99.90;;;;;;4991295;28;20052;-83
2022/03/08 04:41:02;;;;;;;20.27;10.88;;;-0.70;99.90;;;;;;5006145;28;20550;-83
2022/03/08 04:43:30;;;;;;;19.52;11.45;;;-0.70;99.90;;;;;;5027831;28;20041;-84
2022/03/08 04:45:56;;;;;;;20.63;10.70;;;-0.70;99.90;;;;;;5025174;28;20064;-84
2022/03/08 04:48:21;;;;;;;20.27;11.60;;;-0.70;99.90;;;;;;5007275;28;20046;-84
2022/03/08 04:50:47;;;;;;;20.70;11.38;;;-0.60;99.90;;;;;;4975868;28;20052;-84
2022/03/08 04:53:12;;;;;;;22.67;11.77;;;-0.70;99.90;;;;;;4997057;28;20041;-84
2022/03/08 04:55:38;;;;;;;23.52;12.05;;;-0.70;99.90;;;;;;5004610;28;20046;-84
2022/03/08 04:58:04;;;;;;;21.40;11.82;;;-0.60;99.90;;;;;;4991560;28;20076;-83
2022/03/08 05:00:30;;;;;;;25.42;12.20;;;-0.60;99.90;;;;;;4997056;28;20065;-84
2022/03/08 05:02:56;;;;;;;22.50;12.15;;;-0.60;99.90;;;;;;4997357;28;20109;-83
2022/03/08 05:05:21;;;;;;;22.55;11.57;;;-0.60;99.90;;;;;;4993051;28;20050;-83
2022/03/08 05:07:47;;;;;;;20.65;11.60;;;-0.60;99.90;;;;;;4995883;28;20132;-83
2022/03/08 05:10:13;;;;;;;19.20;11.25;;;-0.60;99.90;;;;;;4987042;28;20352;-83
2022/03/08 05:12:39;;;;;;;22.27;11.90;;;-0.60;99.90;;;;;;5005173;28;20045;-83
2022/03/08 05:15:06;;;;;;;22.30;12.30;;;-0.60;99.90;;;;;;5002233;28;20038;-83
2022/03/08 05:17:32;;;;;;;20.25;10.50;;;-0.70;99.90;;;;;;5005606;28;20390;-83
2022/03/08 05:19:57;;;;;;;22.50;12.02;;;-0.70;99.90;;;;;;4988261;28;20121;-83
2022/03/08 05:22:23;;;;;;;21.30;11.48;;;-0.60;99.90;;;;;;4989345;28;20046;-83
2022/03/08 05:24:49;;;;;;;22.60;11.30;;;-0.70;99.90;;;;;;4985113;28;20413;-83
2022/03/08 05:27:14;;;;;;;19.92;10.88;;;-0.60;99.90;;;;;;5007551;28;20506;-83
2022/03/08 05:29:40;;;;;;;19.98;10.70;;;-0.70;99.90;;;;;;4991564;28;20073;-83
2022/03/08 05:32:06;;;;;;;21.13;10.13;;;-0.70;99.90;;;;;;4996167;28;20046;-84
2022/03/08 05:34:32;;;;;;;21.23;11.75;;;-0.70;99.90;;;;;;5026666;28;20085;-84
2022/03/08 05:36:58;;;;;;;20.77;11.13;;;-0.80;99.90;;;;;;5008186;28;20518;-84
2022/03/08 05:39:23;;;;;;;20.60;11.30;;;-0.70;99.90;;;;;;5003578;28;20045;-85
2022/03/08 05:41:50;;;;;;;24.33;10.35;;;-0.80;99.90;;;;;;4990856;28;20072;-85
2022/03/08 05:44:15;;;;;;;20.33;11.75;;;-0.80;99.90;;;;;;5001771;28;20052;-85
2022/03/08 05:46:42;;;;;;;22.45;12.35;;;-0.80;99.90;;;;;;5011977;28;20042;-86
2022/03/08 05:49:07;;;;;;;21.13;10.90;;;-0.80;99.90;;;;;;5013713;28;20041;-85
2022/03/08 05:51:33;;;;;;;20.75;11.25;;;-0.80;99.90;;;;;;5002870;28;20041;-85
2022/03/08 05:53:58;;;;;;;19.48;11.00;;;-0.80;99.90;;;;;;5001142;28;20053;-85
2022/03/08 05:56:24;;;;;;;25.73;11.23;;;-0.90;99.90;;;;;;5030536;28;20075;-86
2022/03/08 05:58:49;;;;;;;22.42;11.55;;;-0.80;99.90;;;;;;5013490;28;20037;-84
2022/03/08 06:01:15;;;;;;;19.50;11.45;;;-0.90;99.90;;;;;;4999692;28;20107;-85
2022/03/08 06:03:41;;;;;;;21.90;11.30;;;-0.80;99.90;;;;;;5006264;28;20056;-84
2022/03/08 06:06:07;;;;;;;24.80;12.05;;;-0.90;99.90;;;;;;5013027;28;20049;-83
2022/03/08 06:08:32;;;;;;;19.92;10.90;;;-0.80;99.90;;;;;;5003995;28;20049;-84
2022/03/08 06:10:58;;;;;;;21.23;11.65;;;-0.80;99.90;;;;;;5030163;28;20512;-83
2022/03/08 06:13:23;;;;;;;20.83;11.13;;;-0.80;99.90;;;;;;5009976;28;20037;-83
2022/03/08 06:15:49;;;;;;;19.73;11.43;;;-0.80;99.90;;;;;;5014188;28;20167;-83
2022/03/08 06:18:15;;;;;;;20.77;11.05;;;-0.80;99.90;;;;;;4994974;28;20095;-82
2022/03/08 06:20:40;;;;;;;22.40;11.90;;;-0.80;99.90;;;;;;4994628;28;20494;-83
2022/03/08 06:23:06;;;;;;;21.08;10.55;;;-0.80;99.90;;;;;;4982167;28;20057;-83
2022/03/08 06:25:32;;;;;;;20.85;10.75;;;-0.80;99.90;;;;;;5006609;28;20053;-83
2022/03/08 06:27:58;;;;;;;24.48;11.73;;;-0.80;99.90;;;;;;4977878;28;20487;-85
2022/03/08 06:30:23;;;;;;;18.92;11.68;;;-0.70;99.90;;;;;;5002806;28;20080;-86
2022/03/08 06:32:49;;;;;;;20.58;11.20;;;-0.70;99.90;;;;;;4995018;28;20095;-85
2022/03/08 06:35:14;;;;;;;20.45;11.25;;;-0.70;99.90;;;;;;4990277;28;20037;-86
2022/03/08 06:37:40;;;;;;;20.27;10.15;;;-0.70;99.90;;;;;;4994942;28;20515;-84
2022/03/08 06:40:07;;;;;;;20.55;11.40;;;-0.70;99.90;;;;;;4982941;28;20064;-84
2022/03/08 06:42:34;;;;;;;20.20;10.73;;;-0.60;99.90;;;;;;4984022;28;20571;-85
2022/03/08 06:45:00;;;;;;;21.30;11.20;;;-0.60;99.90;;;;;;4983394;28;20053;-85
2022/03/08 06:47:25;;;;;;;18.13;11.02;;;-0.50;99.90;;;;;;4991520;28;20033;-84
2022/03/08 06:49:51;;;;;;;22.13;12.20;;;-0.50;99.90;;;;;;4980336;28;20147;-85
2022/03/08 06:52:16;;;;;;;20.90;12.18;;;-0.40;99.90;;;;;;4983899;28;20034;-85
2022/03/08 06:54:42;;;;;;;22.95;11.93;;;-0.40;99.90;;;;;;4994723;28;20046;-84
2022/03/08 06:57:08;;;;;;;17.90;10.40;;;-0.40;99.90;;;;;;4997228;28;20083;-88
2022/03/08 06:59:33;;;;;;;18.25;10.60;;;-0.30;99.90;;;;;;5030277;28;20144;-85
2022/03/08 07:02:00;;;;;;;20.00;10.02;;;-0.20;99.90;;;;;;4986442;28;20037;-83
2022/03/08 07:04:25;;;;;;;20.77;11.02;;;-0.20;99.90;;;;;;5007815;28;20083;-85
2022/03/08 07:06:51;;;;;;;18.63;10.93;;;-0.10;99.90;;;;;;4998779;28;20048;-84
2022/03/08 07:09:17;;;;;;;20.42;11.05;;;0.00;99.90;;;;;;5008759;28;20037;-84
2022/03/08 07:11:43;;;;;;;21.10;11.07;;;0.10;99.90;;;;;;4986810;28;20041;-85
2022/03/08 07:14:10;;;;;;;20.65;11.02;;;0.10;99.90;;;;;;5000829;28;20403;-86
2022/03/08 07:16:36;;;;;;;18.80;11.15;;;0.20;99.90;;;;;;5009623;28;20050;-83
2022/03/08 07:19:01;;;;;;;19.27;11.18;;;0.30;99.90;;;;;;5012605;28;20052;-83
2022/03/08 07:21:27;;;;;;;18.58;10.55;;;0.30;99.90;;;;;;5012661;28;20037;-83
2022/03/08 07:23:52;;;;;;;19.02;11.48;;;0.40;99.90;;;;;;5028646;28;20128;-83
2022/03/08 07:26:18;;;;;;;18.85;10.88;;;0.50;99.90;;;;;;4996103;28;20045;-83
2022/03/08 07:28:43;;;;;;;19.88;11.00;;;0.60;99.90;;;;;;5012284;28;20039;-84
2022/03/08 07:31:12;;;;;;;18.65;10.07;;;0.70;99.90;;;;;;4995886;28;20471;-83
2022/03/08 07:33:38;;;;;;;18.95;11.27;;;0.80;99.90;;;;;;5012031;28;20810;-83
2022/03/08 07:36:03;;;;;;;17.73;10.32;;;0.90;99.90;;;;;;5012354;28;20041;-83
2022/03/08 07:38:29;;;;;;;18.63;10.52;;;1.00;99.90;;;;;;5030881;28;20060;-84
2022/03/08 07:40:55;;;;;;;19.33;11.07;;;1.00;99.90;;;;;;5011733;28;20395;-84
2022/03/08 07:43:20;;;;;;;19.52;11.35;;;1.10;99.90;;;;;;5032774;28;20052;-83
2022/03/08 07:45:46;;;;;;;21.58;11.25;;;1.20;99.90;;;;;;5012858;28;20037;-84
2022/03/08 07:48:12;;;;;;;18.92;10.93;;;1.30;99.90;;;;;;5013259;28;20044;-82
2022/03/08 07:50:37;;;;;;;18.88;10.90;;;1.40;99.90;;;;;;4995552;28;20049;-82
2022/03/08 07:53:04;;;;;;;18.60;11.25;;;1.40;99.90;;;;;;5012531;28;20514;-83
2022/03/08 07:55:30;;;;;;;20.10;11.80;;;1.50;99.90;;;;;;5012445;28;20052;-83
2022/03/08 07:57:56;;;;;;;20.17;11.48;;;1.60;99.90;;;;;;4995739;28;20041;-83
2022/03/08 08:00:23;;;;;;;19.50;11.75;;;1.70;99.90;;;;;;5012780;28;20104;-84
2022/03/08 08:02:48;;;;;;;18.45;10.90;;;1.80;99.90;;;;;;5011166;28;20041;-85
2022/03/08 08:05:14;;;;;;;17.90;11.65;;;1.90;99.90;;;;;;5011927;28;20041;-84
2022/03/08 08:07:39;;;;;;;17.13;10.45;;;2.00;99.90;;;;;;5012193;28;20045;-85
2022/03/08 08:10:06;;;;;;;18.27;11.13;;;2.10;99.90;;;;;;5011873;28;20121;-84
2022/03/08 08:12:31;;;;;;;18.20;10.70;;;2.20;99.90;;;;;;4995760;28;20041;-84
2022/03/08 08:14:57;;;;;;;18.73;11.35;;;2.40;99.90;;;;;;4995361;28;20131;-84
2022/03/08 08:17:22;;;;;;;18.02;11.13;;;2.50;99.90;;;;;;5011493;28;20458;-85
2022/03/08 08:19:48;;;;;;;16.75;10.75;;;2.60;99.90;;;;;;5011696;28;20045;-84
2022/03/08 08:22:13;;;;;;;17.23;10.73;;;2.70;99.90;;;;;;5011457;28;20402;-85
2022/03/08 08:24:39;;;;;;;17.13;10.93;;;2.80;99.90;;;;;;5011405;28;20068;-84
2022/03/08 08:27:05;;;;;;;17.13;10.25;;;2.90;99.90;;;;;;4995289;28;20041;-84
2022/03/08 08:29:30;;;;;;;16.67;10.80;;;3.00;99.90;;;;;;5000907;28;20455;-83
2022/03/08 08:31:56;;;;;;;17.92;11.57;;;3.00;99.90;;;;;;5002075;28;20298;-84
2022/03/08 08:34:21;;;;;;;18.63;11.27;;;3.10;99.90;;;;;;5016801;28;20045;-85
2022/03/08 08:36:47;;;;;;;19.27;11.07;;;3.20;99.90;;;;;;5018906;28;20342;-84
2022/03/08 08:39:14;;;;;;;19.05;10.85;;;3.30;99.90;;;;;;4996721;28;20045;-85
2022/03/08 08:41:44;;;;;;;18.90;11.00;;;3.50;99.90;;;;;;5011559;28;20049;-85
2022/03/08 08:44:11;;;;;;;17.00;10.70;;;3.60;99.90;;;;;;4994823;28;20045;-84
2022/03/08 08:46:37;;;;;;;19.75;10.52;;;3.70;99.90;;;;;;4994100;28;20052;-84
2022/03/08 08:49:03;;;;;;;17.15;10.27;;;3.80;99.90;;;;;;5011301;28;20052;-87
2022/03/08 08:51:29;;;;;;;15.88;10.43;;;3.90;99.90;;;;;;5027955;28;20045;-85
2022/03/08 08:53:55;;;;;;;17.17;10.70;;;4.00;99.90;;;;;;5011061;28;20305;-84
2022/03/08 08:56:21;;;;;;;16.25;10.25;;;4.10;99.90;;;;;;5012035;28;20064;-85
2022/03/08 08:58:47;;;;;;;17.73;10.27;;;4.10;99.90;;;;;;5011103;28;20482;-84
2022/03/08 09:01:13;;;;;;;17.10;11.30;;;4.20;99.90;;;;;;5010988;28;20453;-85
2022/03/08 09:03:39;;;;;;;15.48;10.55;;;4.30;99.90;;;;;;4993878;28;20051;-85
2022/03/08 09:06:04;;;;;;;16.63;11.27;;;4.40;99.90;;;;;;4994610;28;20494;-86
2022/03/08 09:08:30;;;;;;;15.15;10.13;;;4.60;99.90;;;;;;4994552;28;20042;-86
2022/03/08 09:10:56;;;;;;;16.05;10.35;;;4.70;99.90;;;;;;5011080;28;20054;-85
2022/03/08 09:13:23;;;;;;;15.13;9.95;;;4.80;99.90;;;;;;4978065;28;20034;-85
2022/03/08 09:15:49;;;;;;;16.20;10.50;;;4.80;99.90;;;;;;5007052;28;20046;-85
2022/03/08 09:18:15;;;;;;;17.30;10.85;;;5.00;99.90;;;;;;4982197;28;20124;-85
2022/03/08 09:20:41;;;;;;;16.63;10.32;;;5.00;99.90;;;;;;4994269;28;20081;-85
2022/03/08 09:23:08;;;;;;;16.27;10.55;;;5.10;99.90;;;;;;5009814;28;20081;-84
2022/03/08 09:25:33;;;;;;;15.77;10.15;;;5.20;99.90;;;;;;4994778;28;20063;-85
2022/03/08 09:28:02;;;;;;;14.82;10.25;;;5.30;99.90;;;;;;5006746;28;20038;-85
2022/03/08 09:30:29;;;;;;;14.30;9.48;;;5.50;99.90;;;;;;4991490;28;20057;-85
2022/03/08 09:32:58;;;;;;;12.77;8.85;;;5.50;99.90;;;;;;4992153;28;20203;-85
2022/03/08 09:35:26;;;;;;;14.27;9.80;;;5.70;99.90;;;;;;4991564;28;20347;-85
2022/03/08 09:37:52;;;;;;;14.30;9.65;;;5.80;99.40;;;;;;4991901;28;20380;-85
2022/03/08 09:40:18;;;;;;;14.50;10.25;;;5.90;99.70;;;;;;5011287;28;20038;-85
2022/03/08 09:42:44;;;;;;;13.35;10.60;;;6.00;97.80;;;;;;5010373;28;20045;-85
2022/03/08 09:45:10;;;;;;;13.68;10.35;;;6.10;97.60;;;;;;4990946;28;20502;-85
2022/03/08 09:47:36;;;;;;;14.25;10.07;;;6.20;98.00;;;;;;4991722;28;20049;-85
2022/03/08 09:50:02;;;;;;;15.90;9.77;;;6.30;97.80;;;;;;4992805;28;20049;-85
2022/03/08 09:52:27;;;;;;;13.32;10.63;;;6.30;97.20;;;;;;5011118;28;20048;-87
2022/03/08 09:54:53;;;;;;;13.77;9.77;;;6.40;93.50;;;;;;4992961;28;20209;-85
2022/03/08 09:57:22;;;;;;;12.73;9.10;;;6.50;93.00;;;;;;5010979;28;20048;-86
2022/03/08 09:59:48;;;;;;;13.60;8.98;;;6.60;91.90;;;;;;5025871;28;20049;-85
2022/03/08 10:02:14;;;;;;;14.20;9.80;;;6.60;90.20;;;;;;4994235;28;20456;-85
2022/03/08 10:04:40;;;;;;;12.82;10.02;;;6.70;88.40;;;;;;4995864;28;20053;-85
2022/03/08 10:07:11;;;;;;;12.63;9.45;;;6.80;85.20;;;;;;4998001;28;20132;-86
2022/03/08 10:09:37;;;;;;;12.63;9.20;;;6.80;80.40;;;;;;5013442;28;20401;-86
2022/03/08 10:12:16;;;;;;;13.45;10.02;;;6.90;81.50;;;;;;5012972;28;20573;-85
2022/03/08 10:14:42;;;;;;;13.50;9.40;;;6.90;76.70;;;;;;5031104;28;20402;-85
2022/03/08 10:17:09;;;;;;;13.23;10.05;;;7.00;79.70;;;;;;4998338;28;20045;-88
2022/03/08 10:19:46;;;;;;;12.63;9.80;;;7.00;79.40;;;;;;5013914;28;20498;-86
2022/03/08 10:22:32;;;;;;;13.20;9.43;;;7.10;75.70;;;;;;5013818;28;20108;-86
2022/03/08 10:25:19;;;;;;;13.88;10.23;;;7.10;75.90;;;;;;4994251;28;20046;-86
2022/03/08 10:28:02;;;;;;;12.77;9.93;;;7.20;76.80;;;;;;4994730;28;20112;-85
2022/03/08 10:30:43;;;;;;;12.88;9.30;;;7.30;71.70;;;;;;5027590;28;20042;-85
2022/03/08 10:33:10;;;;;;;12.55;9.20;;;7.40;75.00;;;;;;4998911;28;20074;-85
2022/03/08 10:35:41;;;;;;;12.10;9.40;;;7.50;75.10;;;;;;4994267;28;20403;-86
2022/03/08 10:38:09;;;;;;;13.05;9.00;;;7.50;71.70;;;;;;4978889;28;20049;-86
2022/03/08 10:40:36;;;;;;;12.50;9.35;;;7.60;74.40;;;;;;4994368;28;20046;-85
2022/03/08 10:43:06;;;;;;;12.85;8.63;;;7.60;72.50;;;;;;5013929;28;20048;-86
2022/03/08 10:45:36;;;;;;;11.20;8.00;;;7.60;74.10;;;;;;5031690;28;20402;-86
2022/03/08 10:48:06;;;;;;;12.05;8.18;;;7.70;71.10;;;;;;5024987;28;20037;-87
2022/03/08 10:50:34;;;;;;;10.80;7.57;;;7.70;68.60;;;;;;5020797;28;20053;-86
2022/03/08 10:53:02;;;;;;;10.90;7.50;;;7.80;68.00;;;;;;5023375;28;20044;-85
2022/03/08 10:55:33;;;;;;;11.00;8.07;;;7.90;66.70;;;;;;5017464;28;20050;-85
2022/03/08 10:58:01;;;;;;;10.73;7.40;;;7.90;67.80;;;;;;5021259;28;20101;-85
2022/03/08 11:00:39;;;;;;;10.75;7.65;;;8.00;67.40;;;;;;4996367;28;20423;-86
2022/03/08 11:03:08;;;;;;;9.77;7.07;;;8.00;66.60;;;;;;5013392;28;20361;-85
2022/03/08 11:05:49;;;;;;;9.95;6.93;;;8.10;64.80;;;;;;4997409;28;20406;-86
2022/03/08 11:08:15;;;;;;;10.77;7.07;;;8.20;62.90;;;;;;5013408;28;20100;-86
2022/03/08 11:10:42;;;;;;;9.68;6.85;;;8.30;63.00;;;;;;5013523;28;20103;-86
2022/03/08 11:13:09;;;;;;;9.57;6.50;;;8.30;63.90;;;;;;4996452;28;20046;-86
2022/03/08 11:15:38;;;;;;;10.07;6.88;;;8.40;63.10;;;;;;4996726;28;20065;-86
2022/03/08 11:18:06;;;;;;;10.13;6.70;;;8.40;62.60;;;;;;4996631;28;20090;-86
2022/03/08 11:20:34;;;;;;;9.15;6.80;;;8.40;63.00;;;;;;5011684;28;20103;-86
2022/03/08 11:23:00;;;;;;;9.80;5.65;;;8.50;62.40;;;;;;5012128;28;20041;-86
2022/03/08 11:25:29;;;;;;;10.02;6.47;;;8.40;62.30;;;;;;5011017;28;20414;-86
2022/03/08 11:27:55;;;;;;;9.20;6.50;;;8.60;62.40;;;;;;4995675;28;20041;-86
2022/03/08 11:30:24;;;;;;;9.30;6.68;;;8.60;62.00;;;;;;5013591;28;20096;-85
2022/03/08 11:33:21;;;;;;;9.60;6.47;;;8.70;60.90;;;;;;4992921;28;20045;-86
2022/03/08 11:35:56;;;;;;;10.68;6.63;;;8.80;59.80;;;;;;4978654;28;20054;-86
2022/03/08 11:38:22;;;;;;;9.90;6.30;;;8.80;60.90;;;;;;5010468;28;20049;-85
2022/03/08 11:40:58;;;;;;;9.23;6.57;;;8.80;61.10;;;;;;4979016;28;20120;-86
2022/03/08 11:43:38;;;;;;;10.30;7.18;;;8.80;61.00;;;;;;4993441;28;20100;-86
2022/03/08 11:46:17;;;;;;;9.68;6.43;;;8.90;59.60;;;;;;5008429;28;20045;-86
2022/03/08 11:48:57;;;;;;;9.90;6.22;;;8.90;60.20;;;;;;5011960;28;20045;-86
2022/03/08 11:51:24;;;;;;;10.00;6.75;;;9.00;61.00;;;;;;5012499;28;20053;-86
2022/03/08 11:54:08;;;;;;;9.63;6.65;;;9.00;61.50;;;;;;5010917;28;20049;-86
2022/03/08 11:56:48;;;;;;;8.93;5.80;;;9.10;59.80;;;;;;4995643;28;20056;-86
2022/03/08 11:59:14;;;;;;;9.82;6.03;;;9.10;58.60;;;;;;5007891;28;20049;-85
2022/03/08 12:01:40;;;;;;;9.20;5.85;;;9.20;59.30;;;;;;4992588;28;20061;-85
2022/03/08 12:04:12;;;;;;;9.63;5.63;;;9.30;59.20;;;;;;4994627;28;20046;-86
2022/03/08 12:06:39;;;;;;;8.23;5.55;;;9.40;58.60;;;;;;4992385;28;20084;-86
2022/03/08 12:09:12;;;;;;;8.32;5.30;;;9.40;58.60;;;;;;4992326;28;20046;-86
2022/03/08 12:11:46;;;;;;;7.85;5.43;;;9.50;58.10;;;;;;4992275;28;20046;-86
2022/03/08 12:14:18;;;;;;;10.95;5.65;;;9.50;57.20;;;;;;4993847;28;20518;-86
2022/03/08 12:16:49;;;;;;;8.25;5.25;;;9.60;57.40;;;;;;4992296;28;20045;-86
2022/03/08 12:19:35;;;;;;;9.52;5.57;;;9.60;57.40;;;;;;5009684;28;20046;-87
2022/03/08 12:22:00;;;;;;;8.18;5.07;;;9.70;55.50;;;;;;4998891;28;20120;-87
2022/03/08 12:24:27;;;;;;;8.50;5.22;;;9.70;56.10;;;;;;5010053;28;20172;-87
2022/03/08 12:26:59;;;;;;;9.02;5.00;;;9.70;55.50;;;;;;4994605;28;20429;-86
2022/03/08 12:29:28;;;;;;;8.90;5.03;;;9.80;55.80;;;;;;5010255;28;20049;-86
2022/03/08 12:31:57;;;;;;;9.18;4.75;;;9.80;55.80;;;;;;4991442;28;20045;-86
2022/03/08 12:34:45;;;;;;;7.93;5.03;;;9.80;56.40;;;;;;4976494;28;20053;-87
2022/03/08 12:37:29;;;;;;;7.95;4.57;;;9.80;54.10;;;;;;5010260;28;20060;-86